Beemer, Nebraska
Current Conditions -  °F | °C
As of 8:35 AM on Saturday 22 Nov 2014 (Local Time) from KLCG Reporting Station
Haze Haze  
Wind Chill: 27°   Ceiling: 400
Heat Index: 36°   Visibility: 2mi
Dew Point: 34°   Wind: 14mph
Humidity: 95%   Direction: 210°SSW
Pressure: 29.78"   Gusts: NA
Location:  41.93°N, 96.81°W
Report Text: KLCG 221435Z AUTO 21012KT 2SM BR OVC004 02/01 A2978 RMK AO2 T00200013
Loading
Personal Weather Stations






























Interactive Weather Map New forecast layout! Learn more

10-Day Weather Forecast

Advertisements
Track Severe Weather on mobile